Ardoch, North Dakota
Current Conditions -  °F | °C
As of 7:15 PM on Friday 31 Oct 2014 (Local Time) from KGAF Reporting Station
Clear Clear  
Wind Chill: 23°   Ceiling: Unl
Heat Index: 32°   Visibility: 10mi
Dew Point: 19°   Wind: 12mph
Humidity: 60%   Direction: 160°SSE
Pressure: 30.37"   Gusts: NA
Location:  48.21°N, 97.34°W
Report Text: KGAF 010015Z AUTO 16010KT 10SM CLR 00/M07 A3037 RMK AO2
Loading
Personal Weather Stations






























Interactive Weather Map
Tropical Storm Tracking
New forecast layout! Learn more

10-Day Weather Forecast

Advertisements
Track Severe Weather on mobile